Time;durP1;ratioP1;P1;durP2;ratioP2;P2;SDS_P1;SDS_P2;PMS_P1;PMS_P2;Temp;Humidity;BMP_temperature;BMP_pressure;BME280_temperature;BME280_humidity;BME280_pressure;Samples;Min_cycle;Max_cycle;Signal;HPM_P1;HPM_P2
2023/10/19 00:01:11;;;;;;;12.93;9.20;;;10.10;99.90;;;;;;6105406;23;20372;-71
2023/10/19 00:03:37;;;;;;;11.07;8.27;;;10.20;99.90;;;;;;6104104;23;20425;-73
2023/10/19 00:06:05;;;;;;;11.80;7.77;;;10.20;99.90;;;;;;6104996;23;20447;-71
2023/10/19 00:08:41;;;;;;;10.33;7.80;;;10.20;99.90;;;;;;6080199;23;20369;-73
2023/10/19 00:11:21;;;;;;;12.23;7.40;;;10.20;99.90;;;;;;6103879;23;20632;-73
2023/10/19 00:13:51;;;;;;;13.87;9.40;;;10.30;99.90;;;;;;6102824;23;20491;-72
2023/10/19 00:16:17;;;;;;;12.00;7.70;;;10.30;99.90;;;;;;6105708;23;20376;-72
2023/10/19 00:18:49;;;;;;;11.33;7.47;;;10.30;99.90;;;;;;6104085;23;20413;-72
2023/10/19 00:21:23;;;;;;;9.03;6.97;;;10.30;99.90;;;;;;6104973;23;20361;-73
2023/10/19 00:23:58;;;;;;;12.03;7.83;;;10.40;99.90;;;;;;6103128;23;20888;-72
2023/10/19 00:26:29;;;;;;;13.67;8.63;;;10.40;99.90;;;;;;6103630;23;20699;-73
2023/10/19 00:29:14;;;;;;;16.30;8.97;;;10.40;99.90;;;;;;6104969;23;20357;-73
2023/10/19 00:31:41;;;;;;;11.60;8.10;;;10.40;99.90;;;;;;6106703;23;20389;-73
2023/10/19 00:34:07;;;;;;;12.97;8.63;;;10.50;99.90;;;;;;6103589;23;20401;-73
2023/10/19 00:36:33;;;;;;;15.70;10.43;;;10.50;99.90;;;;;;6105820;23;20360;-72
2023/10/19 00:39:05;;;;;;;17.57;10.80;;;10.50;99.90;;;;;;6106869;23;20223;-73
2023/10/19 00:41:31;;;;;;;16.07;9.47;;;10.60;99.90;;;;;;6102130;23;20396;-72
2023/10/19 00:44:10;;;;;;;15.63;8.90;;;10.60;99.90;;;;;;6103285;23;20399;-71
2023/10/19 00:46:43;;;;;;;14.67;8.93;;;10.60;99.90;;;;;;6102595;23;20407;-72
2023/10/19 00:49:14;;;;;;;15.10;7.73;;;10.60;99.90;;;;;;6106388;23;20377;-72
2023/10/19 00:51:53;;;;;;;16.57;10.20;;;10.70;99.90;;;;;;6103278;23;20464;-72
2023/10/19 00:54:50;;;;;;;19.97;10.40;;;10.70;99.90;;;;;;6103924;23;20747;-74
2023/10/19 00:57:21;;;;;;;15.23;8.80;;;10.70;99.90;;;;;;6102122;23;20447;-72
2023/10/19 00:59:54;;;;;;;20.00;10.47;;;10.60;99.90;;;;;;6104505;23;20373;-73
2023/10/19 01:02:29;;;;;;;20.33;10.43;;;10.60;99.90;;;;;;6103011;23;20392;-73
2023/10/19 01:04:56;;;;;;;20.10;11.90;;;10.50;99.90;;;;;;6102295;23;20408;-74
2023/10/19 01:07:27;;;;;;;20.93;13.00;;;10.50;99.90;;;;;;6102780;23;20389;-73
2023/10/19 01:09:59;;;;;;;17.57;11.60;;;10.60;99.90;;;;;;6102608;23;20399;-72
2023/10/19 01:12:33;;;;;;;19.80;11.73;;;10.70;99.90;;;;;;6102058;23;20365;-72
2023/10/19 01:15:49;;;;;;;17.33;10.10;;;10.70;99.90;;;;;;6101876;23;20400;-73
2023/10/19 01:18:05;;;;;;;20.50;11.77;;;10.80;99.90;;;;;;6095583;23;20506;-72
2023/10/19 01:26:08;;;;;;;21.07;12.23;;;10.90;99.90;;;;;;6102533;23;20671;-72
2023/10/19 01:28:48;;;;;;;25.20;13.40;;;10.90;99.90;;;;;;6101244;23;20399;-71
2023/10/19 01:33:57;;;;;;;19.33;10.57;;;10.90;99.90;;;;;;6102368;23;20400;-72
2023/10/19 01:36:24;;;;;;;19.63;11.17;;;11.00;99.90;;;;;;6101128;23;20448;-71
2023/10/19 01:38:55;;;;;;;17.70;10.77;;;11.00;99.90;;;;;;6103234;23;20825;-73
2023/10/19 01:41:23;;;;;;;19.57;10.60;;;11.00;99.90;;;;;;6104046;23;20416;-72
2023/10/19 01:43:54;;;;;;;23.23;12.27;;;11.00;99.90;;;;;;6101233;23;20408;-71
2023/10/19 01:46:22;;;;;;;24.10;12.33;;;11.10;99.90;;;;;;6102389;23;20793;-72
2023/10/19 01:48:55;;;;;;;21.63;12.90;;;11.10;99.90;;;;;;6103040;23;20770;-73
2023/10/19 01:51:26;;;;;;;22.57;13.93;;;11.10;99.90;;;;;;6101006;23;20411;-71
2023/10/19 01:53:55;;;;;;;27.33;14.13;;;11.20;99.90;;;;;;6099517;23;20428;-71
2023/10/19 01:56:21;;;;;;;25.73;13.67;;;11.20;99.90;;;;;;6101190;23;20375;-72
2023/10/19 01:58:48;;;;;;;29.30;14.87;;;11.20;99.90;;;;;;6102041;23;20396;-72
2023/10/19 02:03:58;;;;;;;30.80;15.20;;;11.20;99.90;;;;;;6102919;23;20635;-72
2023/10/19 02:09:23;;;;;;;27.10;14.60;;;11.20;99.90;;;;;;6103205;23;20388;-73
2023/10/19 02:11:57;;;;;;;25.00;12.93;;;11.30;99.90;;;;;;6102536;23;20392;-75
2023/10/19 02:14:25;;;;;;;25.13;12.73;;;11.30;99.90;;;;;;6100482;23;20415;-72
2023/10/19 02:16:52;;;;;;;24.33;13.67;;;11.30;99.90;;;;;;6103910;23;20369;-72
2023/10/19 02:19:20;;;;;;;21.83;13.30;;;11.20;99.90;;;;;;6102722;23;20380;-72
2023/10/19 02:21:50;;;;;;;25.33;14.63;;;11.10;99.90;;;;;;6103275;23;20651;-71
2023/10/19 02:24:16;;;;;;;21.83;13.93;;;11.00;99.90;;;;;;6103311;23;20439;-70
2023/10/19 02:26:43;;;;;;;21.67;13.10;;;11.00;99.90;;;;;;6103449;23;20427;-72
2023/10/19 02:29:09;;;;;;;21.40;11.80;;;11.00;99.90;;;;;;6104205;23;20141;-72
2023/10/19 02:31:39;;;;;;;24.87;12.83;;;11.10;99.90;;;;;;6104693;23;20356;-72
2023/10/19 02:34:10;;;;;;;26.50;13.63;;;11.20;99.90;;;;;;6118092;23;20396;-72
2023/10/19 02:36:38;;;;;;;19.97;12.27;;;11.20;99.90;;;;;;6119419;23;20400;-71
2023/10/19 02:39:09;;;;;;;22.93;12.93;;;11.10;99.90;;;;;;6115021;23;20440;-71
2023/10/19 02:41:38;;;;;;;27.83;14.83;;;11.10;99.90;;;;;;6103585;23;20401;-72
2023/10/19 02:44:30;;;;;;;22.20;13.20;;;11.10;99.90;;;;;;6104692;23;20650;-72
2023/10/19 02:46:58;;;;;;;22.50;12.53;;;11.10;99.90;;;;;;6103222;23;20706;-72
2023/10/19 02:49:25;;;;;;;23.43;12.20;;;11.00;99.90;;;;;;6104007;23;20368;-72
2023/10/19 02:51:53;;;;;;;17.63;9.90;;;11.00;99.90;;;;;;6103400;23;20377;-72
2023/10/19 02:54:29;;;;;;;17.73;10.40;;;11.10;99.90;;;;;;6114517;23;20431;-75
2023/10/19 02:56:58;;;;;;;27.87;16.53;;;11.20;99.90;;;;;;6102540;23;20357;-71
2023/10/19 02:59:28;;;;;;;24.40;14.23;;;11.20;99.90;;;;;;6103463;23;20626;-72
2023/10/19 03:02:17;;;;;;;35.63;17.07;;;11.20;99.90;;;;;;6103038;23;20354;-72
2023/10/19 03:04:43;;;;;;;25.13;13.37;;;11.20;99.90;;;;;;6101495;23;20388;-72
2023/10/19 03:07:12;;;;;;;31.07;16.17;;;11.20;99.90;;;;;;6103516;23;20357;-72
2023/10/19 03:09:53;;;;;;;26.47;14.33;;;11.20;99.90;;;;;;6103151;23;20396;-71
2023/10/19 03:12:25;;;;;;;20.47;13.10;;;11.20;99.90;;;;;;6103031;23;20778;-73
2023/10/19 03:14:51;;;;;;;22.53;13.30;;;11.30;99.90;;;;;;6104351;23;20392;-73
2023/10/19 03:17:18;;;;;;;25.97;14.17;;;11.30;99.90;;;;;;6103792;23;20552;-72
2023/10/19 03:19:43;;;;;;;26.73;13.87;;;11.30;99.90;;;;;;6102485;23;20432;-72
2023/10/19 03:22:10;;;;;;;27.93;15.07;;;11.30;99.90;;;;;;6102559;23;20683;-72
2023/10/19 03:24:35;;;;;;;27.73;15.43;;;11.30;99.90;;;;;;6101477;23;20169;-73
2023/10/19 03:27:08;;;;;;;23.80;13.07;;;11.30;99.90;;;;;;6101986;23;20389;-72
2023/10/19 03:29:38;;;;;;;26.73;12.00;;;11.30;99.90;;;;;;6102523;23;20148;-71
2023/10/19 03:32:09;;;;;;;25.33;13.27;;;11.30;99.90;;;;;;6104369;23;20427;-72
2023/10/19 03:34:35;;;;;;;28.40;13.73;;;11.20;99.90;;;;;;6105369;23;20401;-73
2023/10/19 03:37:05;;;;;;;25.00;14.27;;;11.20;99.90;;;;;;6105059;23;20367;-72
2023/10/19 03:39:34;;;;;;;20.57;12.23;;;11.20;99.90;;;;;;6103879;23;20370;-73
2023/10/19 03:42:05;;;;;;;23.33;12.50;;;11.10;99.90;;;;;;6104185;23;20404;-74
2023/10/19 03:44:42;;;;;;;30.60;14.77;;;11.20;99.90;;;;;;6079972;23;20719;-72
2023/10/19 03:47:11;;;;;;;28.07;15.27;;;11.30;99.90;;;;;;6105744;23;20366;-72
2023/10/19 03:49:41;;;;;;;27.70;15.20;;;11.40;99.90;;;;;;6105702;23;20857;-73
2023/10/19 03:54:35;;;;;;;25.43;11.73;;;11.50;99.90;;;;;;6104681;23;20423;-72
2023/10/19 03:57:06;;;;;;;22.73;12.27;;;11.50;99.90;;;;;;6107933;23;20361;-72
2023/10/19 03:59:34;;;;;;;21.67;10.30;;;11.50;99.90;;;;;;6082917;23;20368;-73
2023/10/19 04:02:00;;;;;;;21.73;10.17;;;11.50;99.90;;;;;;6105048;23;20357;-72
2023/10/19 04:04:29;;;;;;;19.90;10.97;;;11.60;99.90;;;;;;6104000;23;20467;-72
2023/10/19 04:06:57;;;;;;;17.30;9.37;;;11.60;99.90;;;;;;6103545;23;20399;-73
2023/10/19 04:09:28;;;;;;;19.17;10.50;;;11.50;99.90;;;;;;6103120;23;20377;-72
2023/10/19 04:11:56;;;;;;;24.27;11.80;;;11.50;99.90;;;;;;6104281;23;20698;-72
2023/10/19 04:14:21;;;;;;;21.40;11.37;;;11.50;99.90;;;;;;6104248;23;20393;-72
2023/10/19 04:16:48;;;;;;;28.10;14.93;;;11.50;99.90;;;;;;6104388;23;20383;-72
2023/10/19 04:19:15;;;;;;;30.27;15.70;;;11.40;99.90;;;;;;6103682;23;20441;-73
2023/10/19 04:21:46;;;;;;;30.20;16.40;;;11.40;99.90;;;;;;6104734;23;20361;-73
2023/10/19 04:24:12;;;;;;;31.33;16.23;;;11.40;99.90;;;;;;6105660;23;20396;-71
2023/10/19 04:26:38;;;;;;;31.50;15.10;;;11.50;99.90;;;;;;6106300;23;20368;-72
2023/10/19 04:29:11;;;;;;;31.13;16.13;;;11.50;99.90;;;;;;6105117;23;20361;-73
2023/10/19 04:31:49;;;;;;;25.17;13.50;;;11.50;99.90;;;;;;6108811;23;20428;-73
2023/10/19 04:34:20;;;;;;;22.77;13.13;;;11.50;99.90;;;;;;6107095;23;20396;-72
2023/10/19 04:36:46;;;;;;;19.93;11.43;;;11.60;99.90;;;;;;6132592;23;20432;-71
2023/10/19 04:39:13;;;;;;;26.13;13.50;;;11.60;99.90;;;;;;6107293;23;20411;-73
2023/10/19 04:41:44;;;;;;;21.07;12.03;;;11.60;99.90;;;;;;6105752;23;20388;-72
2023/10/19 04:44:10;;;;;;;26.97;13.77;;;11.60;99.90;;;;;;6106621;23;20483;-71
2023/10/19 04:46:36;;;;;;;22.00;12.97;;;11.60;99.90;;;;;;6106482;23;20428;-74
2023/10/19 04:49:03;;;;;;;23.87;12.80;;;11.60;99.90;;;;;;6107664;23;20370;-74
2023/10/19 04:51:29;;;;;;;23.67;12.63;;;11.60;99.90;;;;;;6107523;23;20756;-72
2023/10/19 04:53:55;;;;;;;20.47;12.07;;;11.70;99.90;;;;;;6106279;23;20515;-73
2023/10/19 04:56:21;;;;;;;18.07;10.00;;;11.70;99.90;;;;;;6106305;23;20398;-74
2023/10/19 04:58:47;;;;;;;18.10;9.90;;;11.70;99.90;;;;;;6108188;23;20228;-74
2023/10/19 05:01:14;;;;;;;18.90;10.20;;;11.70;99.90;;;;;;6105914;23;20373;-73
2023/10/19 05:03:44;;;;;;;16.67;10.37;;;11.70;99.90;;;;;;6081692;23;20456;-73
2023/10/19 05:06:09;;;;;;;19.50;10.30;;;11.70;99.90;;;;;;6112809;23;20360;-76
2023/10/19 05:08:36;;;;;;;19.43;10.60;;;11.70;99.90;;;;;;6104552;23;20730;-73
2023/10/19 05:11:03;;;;;;;18.03;10.27;;;11.70;99.90;;;;;;6106264;23;20546;-73
2023/10/19 05:13:31;;;;;;;14.80;9.53;;;11.70;99.90;;;;;;6109767;23;20830;-74
2023/10/19 05:15:58;;;;;;;17.20;9.83;;;11.80;99.90;;;;;;6108712;23;20431;-74
2023/10/19 05:18:25;;;;;;;19.20;11.20;;;11.80;99.90;;;;;;6108133;23;20440;-73
2023/10/19 05:20:55;;;;;;;17.80;9.93;;;11.80;99.90;;;;;;6107878;23;20432;-75
2023/10/19 05:23:24;;;;;;;20.67;11.57;;;11.80;99.90;;;;;;6085069;23;20402;-73
2023/10/19 05:25:59;;;;;;;21.40;11.77;;;11.90;99.90;;;;;;6108924;23;20366;-74
2023/10/19 05:28:26;;;;;;;19.70;10.20;;;11.90;99.90;;;;;;6109650;23;20361;-76
2023/10/19 05:30:52;;;;;;;16.60;9.83;;;11.90;99.90;;;;;;6108415;23;20388;-75
2023/10/19 05:33:20;;;;;;;23.27;12.80;;;11.90;99.90;;;;;;6055844;23;20395;-76
2023/10/19 05:35:50;;;;;;;20.13;12.67;;;11.90;99.90;;;;;;6054757;23;20541;-76
2023/10/19 05:38:16;;;;;;;29.73;15.33;;;11.90;99.90;;;;;;6053433;23;20428;-76
2023/10/19 05:40:47;;;;;;;33.90;14.40;;;11.90;99.90;;;;;;6055533;23;20397;-78
2023/10/19 05:43:13;;;;;;;22.27;11.80;;;11.90;99.90;;;;;;6031321;23;20712;-74
2023/10/19 05:45:39;;;;;;;20.90;11.30;;;12.00;99.90;;;;;;6029210;23;20385;-74
2023/10/19 05:48:08;;;;;;;27.60;14.70;;;12.00;99.90;;;;;;6053720;23;20169;-75
2023/10/19 05:50:34;;;;;;;25.07;13.90;;;12.00;99.90;;;;;;6077657;23;20393;-75
2023/10/19 05:53:01;;;;;;;22.77;11.80;;;11.90;99.90;;;;;;6055275;23;20385;-73
2023/10/19 05:55:28;;;;;;;19.23;10.47;;;11.90;99.90;;;;;;6056914;23;20428;-74
2023/10/19 05:57:54;;;;;;;15.40;10.20;;;11.90;99.90;;;;;;6082469;23;20405;-76
2023/10/19 06:00:21;;;;;;;19.60;11.30;;;11.90;99.90;;;;;;6082739;23;20389;-76
2023/10/19 06:02:48;;;;;;;28.47;14.07;;;11.90;99.90;;;;;;6062049;23;20153;-74
2023/10/19 06:05:16;;;;;;;24.50;14.70;;;11.90;99.90;;;;;;6084011;23;20411;-76
2023/10/19 06:07:46;;;;;;;31.07;14.13;;;12.00;99.90;;;;;;6064788;23;20377;-72
2023/10/19 06:10:18;;;;;;;23.23;12.57;;;12.00;99.90;;;;;;6084843;23;20402;-74
2023/10/19 06:12:45;;;;;;;23.83;13.10;;;12.00;99.90;;;;;;6107366;23;20388;-75
2023/10/19 06:15:12;;;;;;;20.33;12.37;;;12.00;99.90;;;;;;6109390;23;20394;-74
2023/10/19 06:17:42;;;;;;;18.87;12.20;;;12.10;99.90;;;;;;6109778;23;20415;-74
2023/10/19 06:20:19;;;;;;;18.77;10.83;;;12.10;99.90;;;;;;6110004;23;20438;-74
2023/10/19 06:22:50;;;;;;;22.10;11.57;;;12.10;99.90;;;;;;6108745;23;20364;-75
2023/10/19 06:25:21;;;;;;;22.40;11.33;;;12.20;99.90;;;;;;6110455;23;20469;-76
2023/10/19 06:27:48;;;;;;;22.17;12.57;;;12.20;99.90;;;;;;6110415;23;20444;-76
2023/10/19 06:30:18;;;;;;;28.07;13.17;;;12.20;99.90;;;;;;6109077;23;20415;-74
2023/10/19 06:32:47;;;;;;;29.90;15.73;;;12.30;99.90;;;;;;6109881;23;20460;-75
2023/10/19 06:35:13;;;;;;;29.07;15.00;;;12.30;99.90;;;;;;6110751;23;20466;-76
2023/10/19 06:37:43;;;;;;;38.10;17.80;;;12.30;99.90;;;;;;6113097;23;20413;-75
2023/10/19 06:40:11;;;;;;;29.07;14.97;;;12.30;99.90;;;;;;6111319;23;20386;-76
2023/10/19 06:42:37;;;;;;;29.80;15.00;;;12.40;99.90;;;;;;6111795;23;20446;-76
2023/10/19 06:45:04;;;;;;;26.70;14.30;;;12.40;99.90;;;;;;6113160;23;20400;-77
2023/10/19 06:47:30;;;;;;;28.40;14.40;;;12.40;99.90;;;;;;6115986;23;20369;-74
2023/10/19 06:49:57;;;;;;;26.53;13.57;;;12.40;99.90;;;;;;6113057;23;20408;-76
2023/10/19 06:52:24;;;;;;;24.97;13.80;;;12.50;99.90;;;;;;6086212;23;20412;-76
2023/10/19 06:54:50;;;;;;;31.93;16.30;;;12.50;99.90;;;;;;6087876;23;20451;-75
2023/10/19 06:57:16;;;;;;;37.37;19.03;;;12.50;99.90;;;;;;6109716;23;20366;-76
2023/10/19 06:59:42;;;;;;;28.87;15.10;;;12.50;99.90;;;;;;6112367;23;20434;-77
2023/10/19 07:02:12;;;;;;;37.93;19.00;;;12.60;99.90;;;;;;6089601;23;20157;-76
2023/10/19 07:04:38;;;;;;;28.37;15.83;;;12.60;99.90;;;;;;6111906;23;20388;-75
2023/10/19 07:07:05;;;;;;;42.17;19.77;;;12.60;99.90;;;;;;6089290;23;20430;-77
2023/10/19 07:09:39;;;;;;;29.23;17.07;;;12.70;99.90;;;;;;6092777;23;20227;-79
2023/10/19 07:12:04;;;;;;;40.57;21.33;;;12.70;99.90;;;;;;6112650;23;20403;-76
2023/10/19 07:14:33;;;;;;;45.27;19.67;;;12.70;99.90;;;;;;6086984;23;20397;-73
2023/10/19 07:16:59;;;;;;;41.77;22.10;;;12.70;99.90;;;;;;6087430;23;20148;-74
2023/10/19 07:19:25;;;;;;;43.30;22.40;;;12.80;99.90;;;;;;6110605;23;20414;-78
2023/10/19 07:21:57;;;;;;;43.87;20.10;;;12.80;99.90;;;;;;6091940;23;20459;-76
2023/10/19 07:24:24;;;;;;;30.53;17.67;;;12.80;99.90;;;;;;6090177;23;20397;-76
2023/10/19 07:26:53;;;;;;;41.53;19.67;;;12.80;99.90;;;;;;6089456;23;20391;-75
2023/10/19 07:29:24;;;;;;;32.53;16.23;;;12.90;99.90;;;;;;6113729;23;20377;-74
2023/10/19 07:31:52;;;;;;;40.27;18.70;;;12.90;99.90;;;;;;6115969;23;20368;-76
2023/10/19 07:34:18;;;;;;;28.60;15.80;;;12.90;99.90;;;;;;6115365;23;20403;-77
2023/10/19 07:36:44;;;;;;;40.97;19.53;;;13.00;99.90;;;;;;6114763;23;20365;-76
2023/10/19 07:39:18;;;;;;;34.90;16.97;;;13.00;99.90;;;;;;6114125;23;20434;-75
2023/10/19 07:41:46;;;;;;;30.33;15.87;;;13.10;99.90;;;;;;6114340;23;20156;-75
2023/10/19 07:44:13;;;;;;;25.47;14.20;;;13.10;99.90;;;;;;6115287;23;20403;-76
2023/10/19 07:46:39;;;;;;;28.03;13.60;;;13.20;99.90;;;;;;6115341;23;20209;-75
2023/10/19 07:49:05;;;;;;;22.77;12.70;;;13.20;99.90;;;;;;6087926;23;20393;-75
2023/10/19 07:51:32;;;;;;;16.20;10.03;;;13.30;99.90;;;;;;6116330;23;20373;-75
2023/10/19 07:53:58;;;;;;;19.37;11.83;;;13.40;99.90;;;;;;6090923;23;20432;-77
2023/10/19 07:56:25;;;;;;;29.50;15.60;;;13.40;99.90;;;;;;6091231;23;20391;-76
2023/10/19 07:58:51;;;;;;;45.20;20.33;;;13.40;99.90;;;;;;6090526;23;20416;-77
2023/10/19 08:01:22;;;;;;;33.77;18.43;;;13.40;99.90;;;;;;6097001;23;20149;-78
2023/10/19 08:03:49;;;;;;;28.30;16.07;;;13.40;99.90;;;;;;6095974;23;20169;-78
2023/10/19 08:06:17;;;;;;;33.13;17.27;;;13.50;99.90;;;;;;6099186;23;20376;-77
2023/10/19 08:08:48;;;;;;;32.50;16.13;;;13.50;99.90;;;;;;6115945;23;20376;-75
2023/10/19 08:11:14;;;;;;;35.37;17.77;;;13.50;99.90;;;;;;6068313;23;20426;-76
2023/10/19 08:13:39;;;;;;;34.93;17.17;;;13.60;99.90;;;;;;6114269;23;20427;-74
2023/10/19 08:16:07;;;;;;;39.73;20.87;;;13.60;99.90;;;;;;6113630;23;20141;-77
2023/10/19 08:18:35;;;;;;;38.70;18.20;;;13.70;99.90;;;;;;6114317;23;20183;-76
2023/10/19 08:21:04;;;;;;;25.10;14.70;;;13.70;99.90;;;;;;6072150;23;20467;-75
2023/10/19 08:23:31;;;;;;;36.10;20.40;;;13.80;99.90;;;;;;6092220;23;20396;-75
2023/10/19 08:25:59;;;;;;;40.53;17.93;;;13.90;99.90;;;;;;6114648;23;20400;-75
2023/10/19 08:28:27;;;;;;;55.93;20.57;;;13.90;99.90;;;;;;6066913;23;20384;-77
2023/10/19 08:30:56;;;;;;;34.07;17.40;;;14.00;99.90;;;;;;6119139;23;20373;-77
2023/10/19 08:33:25;;;;;;;25.83;14.90;;;14.10;99.90;;;;;;6072860;23;20400;-77
2023/10/19 08:35:54;;;;;;;33.17;17.53;;;14.10;99.90;;;;;;6071440;23;20369;-76
2023/10/19 08:38:20;;;;;;;26.97;16.00;;;14.20;99.90;;;;;;6090772;23;20420;-75
2023/10/19 08:40:50;;;;;;;45.93;17.97;;;14.20;99.90;;;;;;6090271;23;20400;-74
2023/10/19 08:43:21;;;;;;;22.90;13.80;;;14.30;99.90;;;;;;6093405;23;20415;-74
2023/10/19 08:45:47;;;;;;;21.40;15.30;;;14.50;99.90;;;;;;6117217;23;20349;-77
2023/10/19 08:48:14;;;;;;;24.57;14.43;;;14.60;99.90;;;;;;6067669;23;20368;-74
2023/10/19 08:50:41;;;;;;;25.33;15.10;;;14.80;99.90;;;;;;6114315;23;20428;-74
2023/10/19 08:53:08;;;;;;;27.50;17.20;;;14.90;99.90;;;;;;6093681;23;20380;-76
2023/10/19 08:55:36;;;;;;;33.13;19.07;;;15.00;99.90;;;;;;6068555;23;20375;-75
2023/10/19 08:58:04;;;;;;;23.50;15.33;;;15.00;99.90;;;;;;6093353;23;20762;-76
2023/10/19 09:00:56;;;;;;;19.00;13.67;;;15.00;99.90;;;;;;6064611;23;20368;-73
2023/10/19 09:03:24;;;;;;;24.23;12.20;;;15.00;99.90;;;;;;6064664;23;20684;-73
2023/10/19 09:05:50;;;;;;;18.80;11.50;;;15.00;99.90;;;;;;6095398;23;20352;-76
2023/10/19 09:08:19;;;;;;;12.93;10.00;;;15.10;99.90;;;;;;6093380;23;20446;-74
2023/10/19 09:10:48;;;;;;;19.77;11.30;;;15.20;99.90;;;;;;6046561;23;20417;-76
2023/10/19 09:13:18;;;;;;;21.57;10.80;;;15.10;99.90;;;;;;6090973;23;20388;-76
2023/10/19 09:15:45;;;;;;;11.00;8.70;;;15.20;99.90;;;;;;6029974;23;20396;-74
2023/10/19 09:18:16;;;;;;;19.73;9.97;;;15.30;99.90;;;;;;6029238;23;20407;-75
2023/10/19 09:21:02;;;;;;;16.43;9.93;;;15.40;99.90;;;;;;6029281;23;20485;-75
2023/10/19 09:23:28;;;;;;;13.83;10.20;;;15.40;99.90;;;;;;6026013;23;20401;-75
2023/10/19 09:25:57;;;;;;;13.60;9.03;;;15.40;99.90;;;;;;6031604;23;20404;-75
2023/10/19 09:28:24;;;;;;;11.17;8.10;;;15.40;99.90;;;;;;6006240;23;20418;-75
2023/10/19 09:30:53;;;;;;;10.80;7.00;;;15.40;99.90;;;;;;6031357;23;20380;-75
2023/10/19 09:33:21;;;;;;;12.73;7.93;;;15.40;99.90;;;;;;6029624;23;20448;-74
2023/10/19 09:35:48;;;;;;;7.93;7.10;;;15.60;99.90;;;;;;6026824;23;20384;-76
2023/10/19 09:38:16;;;;;;;11.20;6.60;;;15.70;99.90;;;;;;5957450;23;20440;-75
2023/10/19 09:40:44;;;;;;;9.17;5.70;;;15.90;99.90;;;;;;6029788;23;20408;-75
2023/10/19 09:43:17;;;;;;;8.17;5.20;;;16.00;99.90;;;;;;6032119;23;20438;-75
2023/10/19 09:45:49;;;;;;;9.63;5.43;;;16.20;99.90;;;;;;5983386;23;20376;-75
2023/10/19 09:48:16;;;;;;;11.30;5.33;;;16.40;99.90;;;;;;6034369;23;20390;-75
2023/10/19 09:50:45;;;;;;;7.40;6.10;;;16.50;99.90;;;;;;6053776;23;20374;-73
2023/10/19 09:53:12;;;;;;;7.60;4.63;;;16.70;99.90;;;;;;6062301;23;20366;-75
2023/10/19 09:55:41;;;;;;;8.57;4.70;;;16.70;99.90;;;;;;6037833;23;20433;-76
2023/10/19 09:58:16;;;;;;;12.50;4.13;;;16.80;99.90;;;;;;6029769;23;20429;-74
2023/10/19 10:00:49;;;;;;;7.67;3.70;;;16.70;99.90;;;;;;6030259;23;20474;-74
2023/10/19 10:03:47;;;;;;;11.07;5.50;;;16.70;99.90;;;;;;6030046;23;20630;-73
2023/10/19 10:06:20;;;;;;;8.20;4.07;;;16.80;99.90;;;;;;6055550;23;20370;-77
2023/10/19 10:08:46;;;;;;;8.70;4.97;;;16.80;99.90;;;;;;6072415;23;20380;-76
2023/10/19 10:11:26;;;;;;;12.17;6.67;;;17.00;99.90;;;;;;6090396;23;20566;-74
2023/10/19 10:13:53;;;;;;;15.07;6.77;;;17.20;99.90;;;;;;6116922;23;20440;-75
2023/10/19 10:16:26;;;;;;;11.77;6.07;;;17.30;99.90;;;;;;6069976;23;20368;-76
2023/10/19 10:19:20;;;;;;;11.10;5.90;;;17.50;99.90;;;;;;6069085;23;20498;-77
2023/10/19 10:22:15;;;;;;;9.60;5.10;;;17.80;99.90;;;;;;6088926;23;20420;-75
2023/10/19 10:24:42;;;;;;;11.20;5.30;;;18.10;99.90;;;;;;6066187;23;20683;-75
2023/10/19 10:27:09;;;;;;;8.70;4.57;;;18.40;99.90;;;;;;6089955;23;20413;-74
2023/10/19 10:29:37;;;;;;;20.07;9.20;;;18.60;99.90;;;;;;6093414;23;20373;-75
2023/10/19 10:32:05;;;;;;;11.73;5.70;;;18.90;99.90;;;;;;6069763;23;20397;-75
2023/10/19 10:34:37;;;;;;;12.73;7.27;;;19.10;99.90;;;;;;6095021;23;20373;-76
2023/10/19 10:37:11;;;;;;;14.13;6.57;;;19.30;99.90;;;;;;6092920;23;20376;-75
2023/10/19 10:39:39;;;;;;;16.00;6.50;;;19.20;99.90;;;;;;6091818;23;20409;-73
2023/10/19 10:42:09;;;;;;;16.97;7.07;;;19.20;99.90;;;;;;6119544;23;20348;-74
2023/10/19 10:44:46;;;;;;;12.30;6.17;;;19.10;99.90;;;;;;6121182;23;20392;-74
2023/10/19 10:47:21;;;;;;;11.27;5.83;;;19.10;99.90;;;;;;6099006;23;20396;-74
2023/10/19 10:50:13;;;;;;;15.27;6.50;;;19.10;99.90;;;;;;6075828;23;20384;-77
2023/10/19 10:52:43;;;;;;;7.73;4.30;;;19.10;99.90;;;;;;6124209;23;20376;-76
2023/10/19 10:55:15;;;;;;;6.93;4.00;;;19.10;99.90;;;;;;6098783;23;20372;-75
2023/10/19 10:58:00;;;;;;;5.67;3.60;;;19.20;99.90;;;;;;6097658;23;20463;-75
2023/10/19 11:00:27;;;;;;;4.50;2.63;;;19.30;99.90;;;;;;6067210;23;20494;-75
2023/10/19 11:03:07;;;;;;;3.70;2.27;;;19.40;99.90;;;;;;6094883;23;20392;-74
2023/10/19 11:05:35;;;;;;;5.73;2.47;;;19.50;99.90;;;;;;6067667;23;20395;-76
2023/10/19 11:08:17;;;;;;;7.10;2.77;;;19.50;99.90;;;;;;6069993;23;20376;-76
2023/10/19 11:10:46;;;;;;;5.90;2.10;;;19.50;99.90;;;;;;6094476;23;20388;-75
2023/10/19 11:13:13;;;;;;;8.60;2.90;;;19.60;99.90;;;;;;6072042;23;20396;-77
2023/10/19 11:15:48;;;;;;;7.40;2.43;;;19.50;99.90;;;;;;6071142;23;20393;-76
2023/10/19 11:18:39;;;;;;;8.23;2.63;;;19.50;99.90;;;;;;6120018;23;20422;-75
2023/10/19 11:21:09;;;;;;;4.70;2.60;;;19.50;99.90;;;;;;6086546;23;20421;-73
2023/10/19 11:23:46;;;;;;;10.60;4.87;;;19.40;99.90;;;;;;6088870;23;20401;-76
2023/10/19 11:26:16;;;;;;;4.80;3.10;;;19.50;99.90;;;;;;6032025;23;20386;-73
2023/10/19 11:28:54;;;;;;;8.70;3.50;;;19.50;99.90;;;;;;6057248;23;20450;-73
2023/10/19 11:31:22;;;;;;;5.20;3.20;;;19.60;99.90;;;;;;6059922;23;20467;-75
2023/10/19 11:33:52;;;;;;;6.57;2.40;;;19.60;99.90;;;;;;6034606;23;20403;-75
2023/10/19 11:36:20;;;;;;;7.90;2.50;;;19.50;99.90;;;;;;6037847;23;20386;-76
2023/10/19 11:38:52;;;;;;;5.80;2.10;;;19.50;99.90;;;;;;6036299;23;20573;-75
2023/10/19 11:41:25;;;;;;;8.10;3.23;;;19.40;99.90;;;;;;5992444;23;20398;-74
2023/10/19 11:43:53;;;;;;;5.63;2.47;;;19.30;99.90;;;;;;6036682;23;20386;-76
2023/10/19 11:46:18;;;;;;;5.60;2.20;;;19.30;99.90;;;;;;6037785;23;20473;-75
2023/10/19 11:48:45;;;;;;;7.50;2.93;;;19.30;99.90;;;;;;6037578;23;20389;-74
2023/10/19 11:51:11;;;;;;;8.90;2.87;;;19.30;99.90;;;;;;6035914;23;20162;-76
2023/10/19 11:53:57;;;;;;;8.20;3.30;;;19.20;99.90;;;;;;6039130;23;20406;-76
2023/10/19 11:56:25;;;;;;;3.40;2.13;;;19.20;99.90;;;;;;6073742;23;20208;-76
2023/10/19 11:58:51;;;;;;;3.60;1.90;;;19.10;99.90;;;;;;6116827;23;20431;-75
2023/10/19 12:01:17;;;;;;;4.30;2.00;;;19.10;99.90;;;;;;6093407;23;20189;-77
2023/10/19 12:03:48;;;;;;;5.17;2.30;;;19.10;99.90;;;;;;6094464;23;20161;-76
2023/10/19 12:06:19;;;;;;;2.90;1.90;;;19.10;99.90;;;;;;6067293;23;20381;-76
2023/10/19 12:08:45;;;;;;;6.43;2.23;;;19.10;99.90;;;;;;6089609;23;20404;-72
2023/10/19 12:11:19;;;;;;;5.67;2.60;;;19.10;99.90;;;;;;6114599;23;20365;-75
2023/10/19 12:13:45;;;;;;;5.73;2.80;;;19.10;99.90;;;;;;6071094;23;20180;-76
2023/10/19 12:16:15;;;;;;;6.37;1.83;;;19.10;99.90;;;;;;6095295;23;20379;-75
2023/10/19 12:18:43;;;;;;;5.03;2.20;;;18.90;99.90;;;;;;6117602;23;20581;-75
2023/10/19 12:21:14;;;;;;;4.93;3.20;;;18.80;99.90;;;;;;6080252;23;20409;-75
2023/10/19 12:23:41;;;;;;;5.07;2.13;;;18.70;99.90;;;;;;6083983;23;20438;-76
2023/10/19 12:26:13;;;;;;;5.37;3.10;;;18.60;99.90;;;;;;6038000;23;20402;-75
2023/10/19 12:29:00;;;;;;;8.13;2.50;;;18.50;99.90;;;;;;6059635;23;20386;-76
2023/10/19 12:31:35;;;;;;;5.60;3.10;;;18.50;99.90;;;;;;6063105;23;20386;-76
2023/10/19 12:34:07;;;;;;;3.57;2.40;;;18.50;99.90;;;;;;6063451;23;20500;-75
2023/10/19 12:36:59;;;;;;;7.23;2.80;;;18.50;99.90;;;;;;6062889;23;20375;-76
2023/10/19 12:39:47;;;;;;;12.97;3.67;;;18.50;99.90;;;;;;6062891;23;20418;-76
2023/10/19 12:42:14;;;;;;;5.20;2.10;;;18.50;99.90;;;;;;6061548;23;20406;-75
2023/10/19 12:44:41;;;;;;;5.00;2.60;;;18.50;99.90;;;;;;6058062;23;20401;-75
2023/10/19 12:47:17;;;;;;;3.40;2.20;;;18.40;99.90;;;;;;6061319;23;20439;-75
2023/10/19 12:49:45;;;;;;;5.40;2.97;;;18.40;99.90;;;;;;6056836;23;20458;-75
2023/10/19 12:52:10;;;;;;;3.23;2.47;;;18.30;99.90;;;;;;6059038;23;20369;-73
2023/10/19 12:54:37;;;;;;;6.60;3.53;;;18.40;99.90;;;;;;6057611;23;20406;-74
2023/10/19 12:57:09;;;;;;;5.40;2.50;;;18.30;99.90;;;;;;6037124;23;20184;-74
2023/10/19 12:59:39;;;;;;;5.90;2.00;;;18.40;99.90;;;;;;6034546;23;20390;-74
2023/10/19 13:02:09;;;;;;;4.10;1.97;;;18.40;99.90;;;;;;6059585;23;20460;-76
2023/10/19 13:04:36;;;;;;;4.00;2.13;;;18.40;99.90;;;;;;6033790;23;20401;-75